Time;durP1;ratioP1;P1;durP2;ratioP2;P2;SDS_P1;SDS_P2;PMS_P1;PMS_P2;Temp;Humidity;BMP_temperature;BMP_pressure;BME280_temperature;BME280_humidity;BME280_pressure;Samples;Min_cycle;Max_cycle;Signal;HPM_P1;HPM_P2
2022/09/11 00:01:45;;;;;;;4.47;3.70;;;14.50;99.90;;;;;;4972385;28;20272;-70
2022/09/11 00:04:11;;;;;;;4.13;3.72;;;14.50;99.90;;;;;;4971481;28;20205;-70
2022/09/11 00:06:37;;;;;;;4.85;4.05;;;14.50;99.90;;;;;;4971447;28;20224;-70
2022/09/11 00:12:25;;;;;;;4.50;4.20;;;14.40;99.90;;;;;;4972700;28;20196;-70
2022/09/11 00:14:50;;;;;;;4.57;4.18;;;14.20;99.90;;;;;;4971376;28;20177;-70
2022/09/11 00:17:17;;;;;;;4.10;3.67;;;14.20;99.90;;;;;;4972783;28;20233;-70
2022/09/11 00:19:42;;;;;;;4.78;4.28;;;14.20;99.90;;;;;;4971390;28;20181;-70
2022/09/11 00:22:08;;;;;;;4.68;4.38;;;14.20;99.90;;;;;;4972573;28;20191;-70
2022/09/11 00:24:34;;;;;;;5.13;4.60;;;14.20;99.90;;;;;;4971283;28;20185;-70
2022/09/11 00:26:59;;;;;;;4.88;4.47;;;14.20;99.90;;;;;;4971128;28;20268;-70
2022/09/11 00:29:25;;;;;;;7.55;4.68;;;14.20;99.90;;;;;;4971714;28;20187;-70
2022/09/11 00:31:51;;;;;;;5.60;5.07;;;14.20;99.90;;;;;;4970970;28;20188;-71
2022/09/11 00:34:16;;;;;;;5.30;4.80;;;14.20;99.90;;;;;;4971341;28;20196;-71
2022/09/11 00:36:43;;;;;;;4.88;4.35;;;14.20;99.90;;;;;;4971737;28;20185;-71
2022/09/11 00:39:10;;;;;;;4.18;3.78;;;14.20;99.90;;;;;;4972255;28;20227;-71
2022/09/11 00:41:39;;;;;;;4.97;4.63;;;14.20;99.90;;;;;;4971923;28;20271;-71
2022/09/11 00:44:11;;;;;;;4.45;4.07;;;14.10;99.90;;;;;;4970827;28;20702;-71
2022/09/11 00:46:44;;;;;;;4.97;4.57;;;14.10;99.90;;;;;;4971780;28;20200;-71
2022/09/11 00:49:16;;;;;;;5.00;4.53;;;14.00;99.90;;;;;;4971015;28;20170;-71
2022/09/11 00:51:45;;;;;;;5.20;4.80;;;13.90;99.90;;;;;;4970872;28;20648;-71
2022/09/11 00:54:13;;;;;;;5.22;4.75;;;13.90;99.90;;;;;;4972268;28;20197;-71
2022/09/11 00:56:42;;;;;;;6.75;5.15;;;13.80;99.90;;;;;;4970854;28;20185;-71
2022/09/11 00:59:08;;;;;;;5.60;5.10;;;13.80;99.90;;;;;;4972020;28;20173;-71
2022/09/11 01:01:34;;;;;;;5.28;4.78;;;13.80;99.90;;;;;;4971000;28;20550;-71
2022/09/11 01:04:04;;;;;;;5.72;5.20;;;13.90;99.90;;;;;;4970770;28;20204;-71
2022/09/11 01:06:31;;;;;;;5.93;5.32;;;13.90;99.90;;;;;;4970851;28;20208;-71
2022/09/11 01:08:58;;;;;;;6.03;5.53;;;14.00;99.90;;;;;;4970942;28;20187;-71
2022/09/11 01:11:43;;;;;;;6.15;5.55;;;14.00;99.90;;;;;;4972089;28;20192;-71
2022/09/11 01:14:23;;;;;;;5.55;5.05;;;14.00;99.90;;;;;;4970912;28;20200;-71
2022/09/11 01:17:14;;;;;;;7.50;4.93;;;14.10;99.90;;;;;;4971970;28;20169;-71
2022/09/11 01:20:15;;;;;;;5.40;5.00;;;13.90;99.90;;;;;;4991521;28;20215;-71
2022/09/11 01:23:14;;;;;;;5.60;5.10;;;13.80;99.90;;;;;;4970976;28;20680;-71
2022/09/11 01:25:55;;;;;;;5.85;5.22;;;13.80;99.90;;;;;;4970680;28;20258;-71
2022/09/11 01:28:36;;;;;;;5.65;5.18;;;13.90;99.90;;;;;;4970989;28;20246;-71
2022/09/11 01:31:09;;;;;;;4.82;4.47;;;13.90;99.90;;;;;;4970415;28;20173;-71
2022/09/11 01:33:46;;;;;;;6.38;5.30;;;13.90;99.90;;;;;;4970276;28;20193;-71
2022/09/11 01:36:47;;;;;;;5.80;5.30;;;14.00;99.90;;;;;;4971187;28;20203;-71
2022/09/11 01:39:15;;;;;;;5.15;4.75;;;14.00;99.90;;;;;;4981968;28;20554;-71
2022/09/11 01:42:13;;;;;;;6.93;6.18;;;14.00;99.90;;;;;;4971109;28;20276;-71
2022/09/11 01:44:50;;;;;;;5.72;5.20;;;14.00;99.90;;;;;;4970010;28;20193;-71
2022/09/11 01:47:18;;;;;;;6.40;5.72;;;13.90;99.90;;;;;;4970946;28;20196;-71
2022/09/11 01:49:54;;;;;;;5.50;5.10;;;13.90;99.90;;;;;;4972021;28;20188;-71
2022/09/11 01:52:26;;;;;;;5.32;4.78;;;14.00;99.90;;;;;;4973505;28;20203;-71
2022/09/11 01:55:02;;;;;;;6.80;5.20;;;14.10;99.90;;;;;;4973620;28;20172;-71
2022/09/11 01:58:14;;;;;;;5.75;5.28;;;14.20;99.90;;;;;;4973532;28;20169;-71
2022/09/11 02:00:44;;;;;;;5.85;5.35;;;14.30;99.90;;;;;;5018517;28;20190;-71
2022/09/11 02:03:16;;;;;;;6.40;5.90;;;14.30;99.90;;;;;;4980905;28;20358;-71
2022/09/11 02:05:47;;;;;;;7.88;7.18;;;14.40;99.90;;;;;;4973203;28;20648;-71
2022/09/11 02:08:24;;;;;;;8.07;7.28;;;14.40;99.90;;;;;;4973447;28;20199;-71
2022/09/11 02:10:57;;;;;;;9.23;8.43;;;14.30;99.90;;;;;;4973280;28;20260;-71
2022/09/11 02:13:31;;;;;;;10.05;9.15;;;14.30;99.90;;;;;;4974065;28;20201;-71
2022/09/11 02:16:28;;;;;;;11.50;10.40;;;14.30;99.90;;;;;;4973184;28;20161;-71
2022/09/11 02:19:02;;;;;;;12.85;11.57;;;14.30;99.90;;;;;;4982347;28;20193;-71
2022/09/11 02:21:29;;;;;;;13.55;12.25;;;14.30;99.90;;;;;;4973746;28;20270;-71
2022/09/11 02:23:54;;;;;;;14.18;12.75;;;14.40;99.90;;;;;;4974142;28;20204;-71
2022/09/11 02:26:23;;;;;;;13.98;12.75;;;14.40;99.90;;;;;;4973241;28;20181;-71
2022/09/11 02:28:50;;;;;;;12.45;11.35;;;14.40;99.90;;;;;;4973325;28;20660;-71
2022/09/11 02:31:18;;;;;;;12.18;10.98;;;14.40;99.90;;;;;;4972862;28;20181;-71
2022/09/11 02:33:44;;;;;;;14.45;13.05;;;14.50;99.90;;;;;;4973294;28;20208;-71
2022/09/11 02:36:37;;;;;;;12.63;11.63;;;14.50;99.90;;;;;;4973118;28;20222;-71
2022/09/11 02:39:41;;;;;;;13.52;12.38;;;14.50;99.90;;;;;;4972813;28;20260;-71
2022/09/11 02:42:30;;;;;;;13.07;11.95;;;14.50;99.90;;;;;;4972839;28;20173;-71
2022/09/11 02:45:27;;;;;;;13.25;12.05;;;14.50;99.90;;;;;;4972791;28;20548;-71
2022/09/11 02:48:35;;;;;;;14.20;12.63;;;14.60;99.90;;;;;;4973567;28;20549;-71
2022/09/11 02:51:14;;;;;;;12.48;11.27;;;14.60;99.90;;;;;;4997574;28;20669;-71
2022/09/11 02:54:03;;;;;;;10.93;10.02;;;14.60;99.90;;;;;;4978434;28;20241;-71
2022/09/11 02:57:05;;;;;;;12.73;11.52;;;14.60;99.90;;;;;;4973186;28;20157;-71
2022/09/11 02:59:36;;;;;;;10.82;9.93;;;14.50;99.90;;;;;;4972274;28;20203;-71
2022/09/11 03:02:01;;;;;;;10.68;9.82;;;14.50;99.90;;;;;;4972703;28;20165;-71
2022/09/11 03:04:28;;;;;;;10.02;9.15;;;14.50;99.90;;;;;;4973554;28;20183;-71
2022/09/11 03:06:55;;;;;;;9.00;8.30;;;14.50;99.90;;;;;;4972498;28;20221;-71
2022/09/11 03:09:21;;;;;;;9.45;8.50;;;14.40;99.90;;;;;;4972927;28;20178;-71
2022/09/11 03:11:47;;;;;;;9.02;8.23;;;14.40;99.90;;;;;;4972638;28;20184;-71
2022/09/11 03:14:13;;;;;;;9.15;8.45;;;14.40;99.90;;;;;;4972563;28;20201;-71
2022/09/11 03:16:39;;;;;;;9.13;8.32;;;14.40;99.90;;;;;;4972260;28;20188;-71
2022/09/11 03:19:06;;;;;;;9.38;8.68;;;14.40;99.90;;;;;;4972307;28;20181;-71
2022/09/11 03:21:31;;;;;;;9.02;8.32;;;14.40;99.90;;;;;;4972368;28;20177;-71
2022/09/11 03:23:57;;;;;;;10.18;9.27;;;14.30;99.90;;;;;;4972217;28;20668;-71
2022/09/11 03:26:24;;;;;;;9.45;8.73;;;14.30;99.90;;;;;;4973128;28;20243;-71
2022/09/11 03:28:51;;;;;;;8.85;8.15;;;14.30;99.90;;;;;;4973280;28;20173;-71
2022/09/11 03:31:16;;;;;;;8.93;8.18;;;14.20;99.90;;;;;;4973273;28;20177;-71
2022/09/11 03:33:42;;;;;;;8.35;7.65;;;14.20;99.90;;;;;;4972358;28;20706;-71
2022/09/11 03:36:09;;;;;;;9.07;8.27;;;14.20;99.90;;;;;;4971977;28;20183;-71
2022/09/11 03:38:34;;;;;;;9.48;8.63;;;14.20;99.90;;;;;;4972895;28;20185;-71
2022/09/11 03:41:02;;;;;;;8.30;7.70;;;14.20;99.90;;;;;;4971941;28;20180;-71
2022/09/11 03:43:28;;;;;;;8.10;7.50;;;14.20;99.90;;;;;;4972243;28;20288;-71
2022/09/11 03:45:53;;;;;;;6.72;6.22;;;14.20;99.90;;;;;;4971990;28;20228;-71
2022/09/11 03:48:19;;;;;;;6.30;5.80;;;14.20;99.90;;;;;;4973121;28;20209;-71
2022/09/11 03:50:44;;;;;;;5.38;4.93;;;14.20;99.90;;;;;;4971728;28;20173;-71
2022/09/11 03:53:11;;;;;;;5.10;4.70;;;14.10;99.90;;;;;;4972948;28;20189;-71
2022/09/11 03:55:37;;;;;;;4.70;4.40;;;14.10;99.90;;;;;;4971956;28;20181;-71
2022/09/11 03:58:03;;;;;;;4.57;4.28;;;14.10;99.90;;;;;;4973097;28;20203;-71
2022/09/11 04:00:29;;;;;;;4.20;3.90;;;14.10;99.90;;;;;;4973014;28;20189;-71
2022/09/11 04:02:55;;;;;;;4.20;3.90;;;14.10;99.90;;;;;;4971591;28;20197;-71
2022/09/11 04:05:23;;;;;;;4.10;3.90;;;14.10;99.90;;;;;;4971870;28;20185;-71
2022/09/11 04:07:48;;;;;;;3.90;3.70;;;14.00;99.90;;;;;;4971957;28;20266;-71
2022/09/11 04:10:14;;;;;;;3.90;3.70;;;14.00;99.90;;;;;;4972984;28;20582;-71
2022/09/11 04:12:40;;;;;;;3.45;3.25;;;14.10;99.90;;;;;;4970889;28;20206;-71
2022/09/11 04:15:06;;;;;;;3.78;3.47;;;14.00;99.90;;;;;;4971685;28;20231;-71
2022/09/11 04:17:33;;;;;;;4.40;4.00;;;14.00;99.90;;;;;;4972597;28;20192;-71
2022/09/11 04:19:59;;;;;;;3.63;3.33;;;14.10;99.90;;;;;;4971526;28;20181;-71
2022/09/11 04:22:25;;;;;;;3.92;3.72;;;14.10;99.90;;;;;;4972064;28;20211;-71
2022/09/11 04:24:51;;;;;;;3.63;3.33;;;14.00;99.90;;;;;;4972139;28;20574;-71
2022/09/11 04:27:17;;;;;;;3.78;3.58;;;14.10;99.90;;;;;;4972086;28;20215;-71
2022/09/11 04:29:43;;;;;;;3.80;3.50;;;14.10;99.90;;;;;;4971529;28;20203;-71
2022/09/11 04:32:10;;;;;;;3.55;3.35;;;14.10;99.90;;;;;;4971113;28;20297;-71
2022/09/11 04:34:36;;;;;;;3.28;3.08;;;14.20;99.90;;;;;;4971580;28;20201;-71
2022/09/11 04:37:02;;;;;;;4.60;3.47;;;14.20;99.90;;;;;;4971337;28;20239;-71
2022/09/11 04:39:28;;;;;;;2.95;2.85;;;14.20;99.90;;;;;;4971342;28;20233;-71
2022/09/11 04:41:54;;;;;;;4.00;3.70;;;14.20;99.90;;;;;;4970999;28;20185;-71
2022/09/11 04:44:20;;;;;;;3.65;3.35;;;14.20;99.90;;;;;;4971353;28;20181;-71
2022/09/11 04:46:46;;;;;;;3.55;3.35;;;14.20;99.90;;;;;;4971241;28;20201;-71
2022/09/11 04:49:13;;;;;;;3.50;3.30;;;14.10;99.90;;;;;;4970957;28;20214;-71
2022/09/11 04:51:39;;;;;;;3.88;3.65;;;14.20;99.90;;;;;;4970913;28;20225;-71
2022/09/11 04:54:06;;;;;;;3.72;3.53;;;14.10;99.90;;;;;;4971069;28;20287;-71
2022/09/11 04:56:36;;;;;;;3.90;3.60;;;14.10;99.90;;;;;;4971996;28;20181;-71
2022/09/11 04:59:12;;;;;;;3.70;3.40;;;14.10;99.90;;;;;;4971617;28;20216;-71
2022/09/11 05:01:38;;;;;;;3.60;3.40;;;14.10;99.90;;;;;;4970747;28;20171;-71
2022/09/11 05:04:04;;;;;;;4.80;3.85;;;14.10;99.90;;;;;;4971011;28;20761;-71
2022/09/11 05:06:30;;;;;;;4.22;4.00;;;14.20;99.90;;;;;;4970656;28;20232;-71
2022/09/11 05:09:00;;;;;;;4.18;3.92;;;14.20;99.90;;;;;;4972880;28;20264;-71
2022/09/11 05:11:26;;;;;;;4.15;3.85;;;14.30;99.90;;;;;;4971893;28;20561;-71
2022/09/11 05:13:52;;;;;;;4.80;4.22;;;14.30;99.90;;;;;;4971974;28;20199;-71
2022/09/11 05:16:18;;;;;;;4.60;4.30;;;14.20;99.90;;;;;;4971799;28;20184;-71
2022/09/11 05:18:50;;;;;;;4.82;4.43;;;14.20;99.90;;;;;;4971761;28;20574;-71
2022/09/11 05:21:17;;;;;;;5.00;4.63;;;14.20;99.90;;;;;;4972788;28;20165;-71
2022/09/11 05:23:46;;;;;;;5.75;4.50;;;14.20;99.90;;;;;;4973820;28;20211;-71
2022/09/11 05:26:17;;;;;;;4.78;4.25;;;14.30;99.90;;;;;;4974062;28;20181;-71
2022/09/11 05:28:44;;;;;;;5.00;4.60;;;14.30;99.90;;;;;;4975415;28;20242;-71
2022/09/11 05:31:12;;;;;;;5.22;4.72;;;14.30;99.90;;;;;;4973991;28;20553;-71
2022/09/11 05:33:38;;;;;;;5.32;4.88;;;14.40;99.90;;;;;;4975309;28;20208;-72
2022/09/11 05:36:05;;;;;;;5.45;5.05;;;14.50;99.90;;;;;;4974330;28;20181;-72
2022/09/11 05:38:31;;;;;;;5.68;5.18;;;14.50;99.90;;;;;;4974246;28;20181;-72
2022/09/11 05:40:56;;;;;;;5.65;5.15;;;14.50;99.90;;;;;;4973902;28;20184;-72
2022/09/11 05:43:22;;;;;;;5.88;5.35;;;14.60;99.90;;;;;;4975060;28;20790;-72
2022/09/11 05:45:55;;;;;;;6.63;5.43;;;14.60;99.90;;;;;;4975231;28;20684;-72
2022/09/11 05:48:21;;;;;;;5.95;5.55;;;14.60;99.90;;;;;;4973783;28;20211;-72
2022/09/11 05:51:01;;;;;;;6.47;5.80;;;14.60;99.90;;;;;;4975215;28;20264;-72
2022/09/11 05:53:31;;;;;;;5.60;5.10;;;14.60;99.90;;;;;;4973902;28;20204;-72
2022/09/11 05:55:59;;;;;;;5.45;5.05;;;14.70;99.90;;;;;;4975192;28;20581;-72
2022/09/11 05:58:29;;;;;;;5.20;4.70;;;14.70;99.90;;;;;;4973626;28;20183;-72
2022/09/11 06:01:06;;;;;;;5.38;5.00;;;14.80;99.90;;;;;;4974732;28;20172;-72
2022/09/11 06:03:32;;;;;;;6.30;5.63;;;14.80;99.90;;;;;;4974602;28;20567;-72
2022/09/11 06:06:02;;;;;;;5.88;5.10;;;14.80;99.90;;;;;;4973740;28;20197;-72
2022/09/11 06:08:29;;;;;;;5.90;5.30;;;14.90;99.90;;;;;;4973398;28;20200;-72
2022/09/11 06:10:57;;;;;;;5.32;4.93;;;14.90;99.90;;;;;;4973734;28;20188;-72
2022/09/11 06:13:29;;;;;;;5.90;5.50;;;15.00;99.90;;;;;;4973233;28;20246;-72
2022/09/11 06:15:54;;;;;;;6.32;5.72;;;15.00;99.90;;;;;;4973394;28;20188;-72
2022/09/11 06:18:20;;;;;;;6.10;5.60;;;14.90;99.90;;;;;;4973456;28;20554;-72
2022/09/11 06:21:00;;;;;;;6.38;5.78;;;15.00;99.90;;;;;;4974391;28;20687;-72
2022/09/11 06:23:26;;;;;;;6.22;5.72;;;15.10;99.90;;;;;;4973183;28;20258;-72
2022/09/11 06:25:53;;;;;;;6.13;5.53;;;15.10;99.90;;;;;;4973445;28;20185;-72
2022/09/11 06:28:22;;;;;;;5.53;5.13;;;15.20;99.90;;;;;;4973169;28;20205;-72
2022/09/11 06:34:10;;;;;;;5.88;5.35;;;15.40;99.90;;;;;;4974104;28;20196;-71
2022/09/11 06:36:35;;;;;;;5.43;5.10;;;15.50;99.90;;;;;;4973570;28;20173;-71
2022/09/11 06:39:01;;;;;;;9.38;5.40;;;15.60;99.90;;;;;;4973182;28;20207;-71
2022/09/11 06:41:27;;;;;;;5.53;5.13;;;15.70;99.90;;;;;;4974893;28;20177;-71
2022/09/11 06:43:52;;;;;;;6.53;5.30;;;15.80;99.90;;;;;;4972786;28;20208;-71
2022/09/11 06:46:21;;;;;;;5.95;5.43;;;15.80;99.90;;;;;;4973006;28;20187;-71
2022/09/11 06:48:49;;;;;;;5.75;5.35;;;15.80;99.90;;;;;;4972810;28;20192;-71
2022/09/11 06:51:17;;;;;;;5.65;5.20;;;15.90;99.90;;;;;;4974147;28;20169;-71
2022/09/11 06:53:43;;;;;;;5.80;5.35;;;15.90;99.90;;;;;;4972526;28;20201;-71
2022/09/11 06:56:14;;;;;;;6.68;6.07;;;16.00;99.90;;;;;;4972607;28;20199;-71
2022/09/11 06:58:40;;;;;;;5.82;5.43;;;16.00;99.90;;;;;;4973233;28;20180;-71
2022/09/11 07:01:08;;;;;;;6.82;6.32;;;16.10;99.90;;;;;;4974516;28;20174;-71
2022/09/11 07:03:34;;;;;;;6.53;6.00;;;16.00;99.90;;;;;;4972950;28;20204;-71
2022/09/11 07:06:00;;;;;;;6.63;6.05;;;16.10;99.90;;;;;;4973299;28;20197;-71
2022/09/11 07:08:33;;;;;;;6.43;5.88;;;16.20;99.90;;;;;;4973554;28;20669;-71
2022/09/11 07:11:03;;;;;;;6.20;5.70;;;16.40;99.90;;;;;;4974111;28;20169;-71
2022/09/11 07:13:31;;;;;;;5.45;5.03;;;16.60;99.90;;;;;;4973534;28;20196;-71
2022/09/11 07:16:04;;;;;;;5.55;5.13;;;16.80;99.90;;;;;;4973770;28;20662;-71
2022/09/11 07:18:37;;;;;;;6.53;5.85;;;16.70;99.90;;;;;;4972275;28;20177;-71
2022/09/11 07:21:11;;;;;;;6.07;5.32;;;16.70;99.90;;;;;;4972253;28;20196;-71
2022/09/11 07:23:38;;;;;;;5.90;5.50;;;16.70;99.90;;;;;;4972144;28;20680;-71
2022/09/11 07:26:06;;;;;;;6.47;5.97;;;16.60;99.90;;;;;;4972119;28;20558;-71
2022/09/11 07:28:32;;;;;;;6.53;5.93;;;16.40;99.90;;;;;;4973420;28;20212;-71
2022/09/11 07:31:11;;;;;;;8.23;6.50;;;16.40;99.90;;;;;;4972910;28;20185;-71
2022/09/11 07:33:38;;;;;;;8.32;6.57;;;16.40;99.90;;;;;;4971938;28;20196;-71
2022/09/11 07:36:34;;;;;;;6.97;6.47;;;16.30;99.90;;;;;;4972125;28;20272;-71
2022/09/11 07:39:00;;;;;;;7.47;6.80;;;16.20;99.90;;;;;;4980987;28;20189;-72
2022/09/11 07:41:33;;;;;;;8.57;7.70;;;16.30;99.90;;;;;;4971982;28;20196;-72
2022/09/11 07:43:59;;;;;;;23.98;21.88;;;16.10;99.90;;;;;;4973128;28;20199;-72
2022/09/11 07:46:25;;;;;;;24.35;22.30;;;16.20;99.90;;;;;;4971363;28;20582;-72
2022/09/11 07:48:52;;;;;;;16.27;14.88;;;16.10;99.90;;;;;;4972237;28;20173;-77
2022/09/11 07:51:18;;;;;;;11.40;10.40;;;16.10;99.90;;;;;;4972028;28;20181;-72
2022/09/11 07:53:46;;;;;;;9.27;8.50;;;16.30;99.90;;;;;;4971896;28;20573;-71
2022/09/11 07:56:18;;;;;;;8.32;7.72;;;16.30;99.90;;;;;;4972893;28;20188;-71
2022/09/11 07:59:05;;;;;;;10.25;9.43;;;16.40;99.90;;;;;;4977780;28;20175;-71
2022/09/11 08:01:32;;;;;;;10.02;9.13;;;16.40;99.90;;;;;;4989483;28;20183;-71
2022/09/11 08:04:06;;;;;;;11.20;10.25;;;16.30;99.90;;;;;;4982919;28;20599;-72
2022/09/11 08:06:34;;;;;;;13.27;12.18;;;16.40;99.90;;;;;;4982304;28;20199;-71
2022/09/11 08:09:19;;;;;;;12.65;11.65;;;16.50;99.90;;;;;;4985867;28;20176;-71
2022/09/11 08:11:47;;;;;;;10.90;10.00;;;16.50;99.90;;;;;;4978786;28;20662;-71
2022/09/11 08:14:14;;;;;;;11.85;10.93;;;16.60;99.90;;;;;;4974333;28;20200;-71
2022/09/11 08:16:40;;;;;;;10.85;9.95;;;16.60;99.90;;;;;;4992117;28;20255;-71
2022/09/11 08:19:07;;;;;;;10.77;9.88;;;16.70;99.90;;;;;;4991101;28;20180;-72
2022/09/11 08:21:33;;;;;;;10.10;9.20;;;16.70;99.90;;;;;;4991969;28;20235;-73
2022/09/11 08:23:59;;;;;;;8.85;8.15;;;16.80;99.90;;;;;;4987100;28;20196;-72
2022/09/11 08:26:30;;;;;;;11.07;9.88;;;16.90;99.90;;;;;;4973643;28;20177;-71
2022/09/11 08:28:58;;;;;;;9.57;8.75;;;16.90;99.90;;;;;;4982056;28;20245;-71
2022/09/11 08:31:28;;;;;;;10.10;9.20;;;16.90;99.90;;;;;;4978324;28;20263;-71
2022/09/11 08:33:55;;;;;;;9.18;8.38;;;17.30;99.90;;;;;;4991017;28;20210;-71
2022/09/11 08:36:21;;;;;;;12.02;9.38;;;17.50;99.90;;;;;;4971189;28;20711;-71
2022/09/11 08:38:47;;;;;;;9.18;8.23;;;17.80;99.90;;;;;;4971181;28;20668;-70
2022/09/11 08:42:08;;;;;;;8.32;7.63;;;18.30;99.90;;;;;;4970906;28;20277;-70
2022/09/11 08:44:48;;;;;;;8.05;7.35;;;18.50;99.90;;;;;;4972881;28;20245;-70
2022/09/11 08:48:05;;;;;;;9.82;7.43;;;18.50;99.90;;;;;;4971139;28;20201;-70
2022/09/11 08:50:41;;;;;;;9.35;7.75;;;18.60;99.90;;;;;;4971746;28;20207;-70
2022/09/11 08:53:17;;;;;;;9.20;8.27;;;18.70;99.90;;;;;;4971290;28;20241;-70
2022/09/11 08:55:49;;;;;;;7.88;7.20;;;18.80;99.90;;;;;;4971994;28;20514;-71
2022/09/11 08:58:32;;;;;;;8.60;7.82;;;18.90;99.90;;;;;;4972441;28;20228;-71
2022/09/11 09:01:35;;;;;;;8.50;7.70;;;18.80;99.90;;;;;;4970852;28;20204;-70
2022/09/11 09:07:48;;;;;;;8.43;7.72;;;18.80;99.90;;;;;;4971989;28;20318;-70
2022/09/11 09:10:30;;;;;;;8.07;7.38;;;18.70;99.90;;;;;;4971857;28;20743;-73
2022/09/11 09:13:16;;;;;;;7.55;6.85;;;18.70;99.90;;;;;;4972043;28;20227;-72
2022/09/11 09:15:55;;;;;;;6.63;5.90;;;18.90;99.90;;;;;;4972173;28;20168;-73
2022/09/11 09:18:32;;;;;;;7.53;6.93;;;18.90;99.90;;;;;;4972455;28;20175;-73
2022/09/11 09:21:44;;;;;;;7.63;6.85;;;19.10;99.90;;;;;;4970798;28;20165;-73
2022/09/11 09:24:20;;;;;;;8.73;6.03;;;19.60;99.90;;;;;;4989288;28;20223;-73
2022/09/11 09:27:05;;;;;;;6.85;6.20;;;19.40;99.90;;;;;;4970383;28;20217;-72
2022/09/11 09:29:54;;;;;;;6.28;5.68;;;19.30;99.90;;;;;;4972328;28;20168;-72
2022/09/11 09:32:42;;;;;;;5.60;5.20;;;19.20;99.90;;;;;;4971822;28;20205;-72
2022/09/11 09:38:30;;;;;;;6.65;5.50;;;19.00;99.90;;;;;;4971766;28;20175;-72
2022/09/11 09:40:58;;;;;;;5.15;4.70;;;18.90;99.90;;;;;;4972142;28;20538;-72
2022/09/11 09:43:33;;;;;;;5.75;4.30;;;18.90;99.90;;;;;;4971407;28;20285;-72
2022/09/11 09:46:23;;;;;;;4.85;4.45;;;18.80;99.90;;;;;;4970527;28;20207;-72
2022/09/11 09:48:48;;;;;;;5.38;4.50;;;18.70;99.90;;;;;;4970213;28;20209;-72
2022/09/11 09:51:14;;;;;;;6.45;4.80;;;18.70;99.90;;;;;;4970213;28;20272;-72
2022/09/11 09:53:43;;;;;;;6.85;4.70;;;18.70;99.90;;;;;;4971353;28;20197;-72
2022/09/11 09:56:15;;;;;;;5.28;4.75;;;18.70;99.90;;;;;;4970262;28;20178;-73
2022/09/11 09:59:17;;;;;;;5.13;4.72;;;18.90;99.90;;;;;;4971937;28;20154;-72
2022/09/11 10:01:50;;;;;;;5.32;4.82;;;19.20;99.90;;;;;;4971489;28;20632;-73
2022/09/11 10:04:50;;;;;;;5.90;4.65;;;19.40;99.90;;;;;;4970123;28;20197;-73
2022/09/11 10:10:39;;;;;;;6.25;5.65;;;19.70;99.90;;;;;;4973952;28;20196;-72
2022/09/11 10:13:12;;;;;;;8.73;5.45;;;19.90;99.90;;;;;;4974088;28;20201;-72
2022/09/11 10:15:39;;;;;;;9.77;4.93;;;19.90;99.90;;;;;;4973539;28;20219;-72
2022/09/11 10:18:31;;;;;;;6.88;5.68;;;20.00;99.90;;;;;;4974726;28;20192;-72
2022/09/11 10:21:23;;;;;;;9.00;6.45;;;20.20;99.90;;;;;;4975574;28;20219;-72
2022/09/11 10:27:12;;;;;;;5.32;4.82;;;20.40;99.90;;;;;;4975215;28;20583;-72
2022/09/11 10:29:49;;;;;;;7.93;5.20;;;20.40;99.90;;;;;;4975127;28;20165;-72
2022/09/11 10:32:16;;;;;;;5.95;4.15;;;20.50;99.90;;;;;;4974860;28;20205;-72
2022/09/11 10:34:50;;;;;;;5.10;4.68;;;20.40;99.90;;;;;;4972929;28;20183;-72
2022/09/11 10:37:26;;;;;;;5.32;4.93;;;20.20;99.90;;;;;;4972889;28;20187;-72
2022/09/11 10:40:38;;;;;;;5.22;4.70;;;20.20;99.90;;;;;;4973055;28;20319;-72
2022/09/11 10:43:03;;;;;;;5.53;4.63;;;20.40;99.90;;;;;;4972910;28;20243;-71
2022/09/11 10:45:30;;;;;;;5.32;4.78;;;20.40;99.90;;;;;;4974128;28;20177;-73
2022/09/11 10:48:13;;;;;;;8.35;4.63;;;20.40;99.90;;;;;;4972986;28;20292;-73
2022/09/11 10:50:40;;;;;;;7.30;6.60;;;20.20;99.90;;;;;;4972740;28;20644;-72
2022/09/11 10:56:27;;;;;;;5.57;5.05;;;20.00;99.90;;;;;;4974138;28;20172;-73
2022/09/11 10:59:00;;;;;;;7.30;6.10;;;20.00;99.90;;;;;;4975544;28;20558;-72
2022/09/11 11:01:26;;;;;;;20.75;15.05;;;19.90;99.90;;;;;;4974902;28;20176;-70
2022/09/11 11:03:51;;;;;;;24.67;17.65;;;19.90;99.90;;;;;;4972433;28;20201;-71
2022/09/11 11:06:47;;;;;;;22.65;16.20;;;20.20;99.90;;;;;;4972765;28;20185;-71
2022/09/11 11:09:25;;;;;;;7.38;6.38;;;20.40;99.90;;;;;;4973976;28;20180;-71
2022/09/11 11:12:02;;;;;;;14.70;9.50;;;20.60;99.90;;;;;;4973252;28;20188;-71
2022/09/11 11:14:28;;;;;;;6.03;5.30;;;20.70;99.90;;;;;;4973714;28;20169;-72
2022/09/11 11:17:13;;;;;;;4.78;4.38;;;20.80;99.90;;;;;;4973958;28;20247;-73
2022/09/11 11:20:02;;;;;;;4.97;4.57;;;21.00;99.90;;;;;;4975851;28;20181;-73
2022/09/11 11:23:04;;;;;;;6.88;4.50;;;21.30;99.90;;;;;;4974802;28;20220;-72
2022/09/11 11:26:00;;;;;;;6.72;5.13;;;21.30;99.90;;;;;;4973748;28;20250;-72
2022/09/11 11:28:40;;;;;;;5.78;4.60;;;21.20;99.90;;;;;;4975745;28;20273;-73
2022/09/11 11:31:32;;;;;;;5.35;4.85;;;21.10;99.90;;;;;;4974354;28;20225;-72
2022/09/11 11:34:18;;;;;;;5.53;4.43;;;21.50;99.90;;;;;;4973555;28;20196;-72
2022/09/11 11:36:54;;;;;;;4.88;4.45;;;21.70;99.90;;;;;;4972495;28;20624;-72
2022/09/11 11:39:36;;;;;;;4.38;3.97;;;22.00;99.90;;;;;;4975563;28;20175;-73
2022/09/11 11:42:28;;;;;;;4.32;3.90;;;22.50;99.90;;;;;;4975134;28;20176;-72
2022/09/11 11:45:30;;;;;;;4.80;4.30;;;22.60;99.90;;;;;;4975001;28;20184;-72
2022/09/11 11:48:00;;;;;;;5.03;4.22;;;22.50;99.90;;;;;;4973729;28;20216;-73
2022/09/11 11:50:35;;;;;;;4.63;4.22;;;22.20;99.90;;;;;;4975205;28;20169;-73
2022/09/11 11:53:05;;;;;;;4.88;4.28;;;21.50;99.90;;;;;;4973426;28;20197;-73
2022/09/11 11:56:07;;;;;;;5.05;4.55;;;21.10;99.90;;;;;;4973408;28;20172;-71
2022/09/11 11:59:01;;;;;;;4.72;4.20;;;20.70;99.90;;;;;;4972765;28;20188;-71
2022/09/11 12:01:45;;;;;;;4.90;4.45;;;20.50;99.90;;;;;;4971221;28;20197;-71
2022/09/11 12:04:23;;;;;;;5.88;4.68;;;20.30;99.90;;;;;;4971584;28;20223;-71
2022/09/11 12:06:49;;;;;;;5.28;4.80;;;20.20;99.90;;;;;;4973194;28;20181;-72
2022/09/11 12:09:17;;;;;;;7.95;5.82;;;19.90;99.90;;;;;;4972695;28;20205;-71
2022/09/11 12:11:46;;;;;;;8.95;6.20;;;19.60;99.90;;;;;;4971994;28;20652;-71
2022/09/11 12:14:26;;;;;;;11.68;7.32;;;19.10;99.90;;;;;;4972893;28;20204;-71
2022/09/11 12:16:52;;;;;;;13.60;7.53;;;18.80;99.90;;;;;;4973549;28;20276;-72
2022/09/11 12:19:21;;;;;;;12.30;8.40;;;18.70;99.90;;;;;;4971446;28;20522;-71
2022/09/11 12:21:53;;;;;;;7.95;7.20;;;18.60;99.90;;;;;;4972721;28;20169;-71
2022/09/11 12:50:04;;;;;;;8.52;6.90;;;18.90;99.90;;;;;;5194256;23;20251;-72
2022/09/11 12:52:44;;;;;;;7.63;6.93;;;18.80;99.90;;;;;;5010793;28;20179;-72
2022/09/11 12:55:30;;;;;;;10.15;7.18;;;18.70;99.90;;;;;;5010561;28;20198;-72
2022/09/11 12:58:01;;;;;;;8.43;7.68;;;18.60;99.90;;;;;;5011028;28;20183;-72
2022/09/11 13:00:42;;;;;;;8.00;7.20;;;18.70;99.90;;;;;;5009887;28;20176;-72
2022/09/11 13:03:23;;;;;;;8.07;7.10;;;18.60;99.90;;;;;;5010265;28;20184;-72
2022/09/11 13:06:06;;;;;;;8.30;7.45;;;18.60;99.90;;;;;;5009721;28;20203;-72
2022/09/11 13:08:38;;;;;;;8.48;7.30;;;18.70;99.90;;;;;;5010849;28;20195;-72
2022/09/11 13:11:58;;;;;;;8.00;7.28;;;19.00;99.90;;;;;;5009729;28;20262;-72
2022/09/11 13:14:29;;;;;;;8.30;6.88;;;19.40;99.90;;;;;;5034634;28;20261;-72
2022/09/11 13:17:03;;;;;;;7.38;6.78;;;19.70;99.90;;;;;;5013095;28;20208;-72
2022/09/11 13:19:36;;;;;;;8.30;6.88;;;19.80;99.90;;;;;;5011077;28;20148;-72
2022/09/11 13:22:26;;;;;;;7.78;7.07;;;20.00;99.90;;;;;;5011128;28;20156;-72
2022/09/11 13:25:05;;;;;;;7.35;6.75;;;20.10;99.90;;;;;;5009451;28;20191;-72
2022/09/11 13:27:35;;;;;;;7.13;6.43;;;20.30;99.90;;;;;;5010745;28;20197;-72
2022/09/11 13:30:01;;;;;;;9.00;8.10;;;20.50;99.90;;;;;;5009383;28;20180;-72
2022/09/11 13:32:27;;;;;;;8.32;7.50;;;20.80;99.90;;;;;;5010538;28;20172;-72
2022/09/11 13:34:58;;;;;;;8.32;7.60;;;20.70;99.90;;;;;;5009290;28;20262;-72
2022/09/11 13:37:35;;;;;;;7.47;6.80;;;20.90;99.90;;;;;;5010172;28;20178;-72
2022/09/11 13:40:03;;;;;;;7.20;6.53;;;20.90;99.90;;;;;;5010091;28;20262;-72
2022/09/11 13:42:29;;;;;;;4.60;4.30;;;20.90;99.90;;;;;;5009220;28;20677;-72
2022/09/11 13:44:58;;;;;;;4.70;4.30;;;20.90;99.90;;;;;;5012474;28;20211;-72
2022/09/11 13:47:26;;;;;;;4.57;3.80;;;21.00;99.90;;;;;;5012587;28;20625;-72
2022/09/11 13:50:01;;;;;;;4.38;3.90;;;21.10;99.90;;;;;;5013429;28;20555;-72
2022/09/11 13:52:29;;;;;;;4.63;3.85;;;21.10;99.90;;;;;;5012636;28;20175;-72
2022/09/11 13:54:58;;;;;;;4.40;4.05;;;21.10;99.90;;;;;;5012734;28;20197;-72
2022/09/11 13:57:27;;;;;;;4.45;4.03;;;21.10;99.90;;;;;;5012532;28;20175;-72
2022/09/11 13:59:55;;;;;;;6.10;3.70;;;21.10;99.90;;;;;;5012479;28;20183;-72
2022/09/11 14:02:36;;;;;;;4.57;3.70;;;21.40;99.90;;;;;;5013692;28;20244;-72
2022/09/11 14:05:25;;;;;;;4.65;4.32;;;21.70;99.90;;;;;;5012408;28;20205;-72
2022/09/11 14:07:59;;;;;;;4.03;3.72;;;21.70;99.90;;;;;;5012514;28;20688;-72